createdAt,value
2018-03-19T00:00:24.286Z,5.32
2018-03-19T00:02:54.109Z,6.15
2018-03-19T00:05:23.825Z,6.45
2018-03-19T00:07:53.256Z,6.07
2018-03-19T00:10:22.680Z,6.55
2018-03-19T00:12:52.120Z,5.15
2018-03-19T00:15:22.880Z,5.62
2018-03-19T00:17:52.861Z,6.40
2018-03-19T00:20:22.892Z,5.10
2018-03-19T00:22:52.312Z,6.62
2018-03-19T00:25:21.912Z,6.68
2018-03-19T00:27:51.453Z,6.10
2018-03-19T00:30:21.120Z,4.80
2018-03-19T00:32:50.809Z,6.90
2018-03-19T00:35:20.248Z,5.95
2018-03-19T00:37:50.068Z,5.00
2018-03-19T00:40:19.490Z,5.93
2018-03-19T00:42:48.913Z,4.65
2018-03-19T00:45:18.573Z,5.62
2018-03-19T00:47:48.069Z,5.15
2018-03-19T00:50:18.145Z,6.60
2018-03-19T00:52:47.936Z,5.40
2018-03-19T00:55:17.834Z,5.87
2018-03-19T00:57:47.260Z,5.40
2018-03-19T01:00:16.692Z,6.07
2018-03-19T01:02:46.153Z,5.65
2018-03-19T01:05:15.818Z,5.22
2018-03-19T01:07:45.261Z,5.30
2018-03-19T01:10:15.485Z,5.72
2018-03-19T01:12:45.185Z,5.15
2018-03-19T01:15:15.205Z,5.87
2018-03-19T01:17:45.078Z,5.00
2018-03-19T01:20:14.646Z,5.30
2018-03-19T01:22:44.070Z,5.18
2018-03-19T01:25:13.751Z,5.57
2018-03-19T01:27:43.177Z,6.37
2018-03-19T01:30:13.273Z,6.28
2018-03-19T01:32:43.404Z,5.80
2018-03-19T01:35:13.310Z,5.22
2018-03-19T01:37:42.721Z,4.50
2018-03-19T01:40:12.369Z,5.85
2018-03-19T01:42:42.025Z,4.65
2018-03-19T01:45:11.542Z,4.62
2018-03-19T01:47:41.849Z,6.32
2018-03-19T01:50:11.269Z,5.32
2018-03-19T01:52:47.380Z,5.55
2018-03-19T01:55:16.879Z,5.80
2018-03-19T01:57:46.297Z,4.50
2018-03-19T02:00:15.724Z,4.87
2018-03-19T02:02:45.536Z,5.10
2018-03-19T02:05:15.514Z,5.87
2018-03-19T02:07:44.939Z,4.95
2018-03-19T02:10:14.664Z,5.35
2018-03-19T02:12:44.504Z,6.45
2018-03-19T02:15:13.945Z,7.43
2018-03-19T02:17:43.904Z,5.47
2018-03-19T02:20:14.135Z,5.32
2018-03-19T02:22:43.562Z,5.68
2018-03-19T02:25:13.506Z,6.05
2018-03-19T02:27:42.946Z,5.55
2018-03-19T02:30:12.779Z,5.65
2018-03-19T02:32:42.682Z,6.50
2018-03-19T02:35:12.138Z,5.15
2018-03-19T02:37:41.649Z,6.50
2018-03-19T02:40:11.076Z,5.07
2018-03-19T02:42:40.919Z,5.70
2018-03-19T02:45:12.089Z,6.30
2018-03-19T02:47:41.996Z,5.55
2018-03-19T02:50:11.408Z,5.72
2018-03-19T02:52:41.016Z,6.10
2018-03-19T02:55:11.015Z,5.37
2018-03-19T02:57:40.452Z,4.80
2018-03-19T03:00:09.881Z,6.53
2018-03-19T03:02:39.449Z,5.65
2018-03-19T03:05:08.878Z,7.75
2018-03-19T03:07:42.659Z,5.00
2018-03-19T03:10:12.352Z,4.60
2018-03-19T03:12:41.776Z,6.35
2018-03-19T03:15:11.194Z,5.68
2018-03-19T03:17:40.853Z,4.62
2018-03-19T03:20:17.137Z,5.50
2018-03-19T03:22:46.601Z,5.57
2018-03-19T03:25:15.972Z,5.95
2018-03-19T03:27:45.424Z,6.05
2018-03-19T03:30:14.926Z,6.43
2018-03-19T03:32:44.341Z,4.87
2018-03-19T03:35:13.765Z,5.93
2018-03-19T03:37:43.572Z,5.00
2018-03-19T03:40:13.280Z,5.00
2018-03-19T03:42:42.932Z,5.65
2018-03-19T03:45:12.376Z,6.00
2018-03-19T03:47:42.212Z,5.97
2018-03-19T03:50:11.713Z,4.40
2018-03-19T03:52:42.249Z,5.57
2018-03-19T03:55:12.388Z,6.40
2018-03-19T03:57:41.801Z,4.72
2018-03-19T04:00:11.244Z,6.05
2018-03-19T04:02:40.702Z,5.00
2018-03-19T04:05:10.134Z,6.18
2018-03-19T04:07:39.620Z,6.30
2018-03-19T04:10:09.429Z,5.05
2018-03-19T04:12:38.852Z,5.00
2018-03-19T04:15:08.280Z,6.03
2018-03-19T04:17:38.150Z,5.78
2018-03-19T04:20:19.346Z,5.22
2018-03-19T04:22:49.724Z,5.70
2018-03-19T04:25:19.144Z,5.18
2018-03-19T04:27:48.651Z,5.40
2018-03-19T04:30:18.580Z,5.37
2018-03-19T04:32:48.083Z,6.37
2018-03-19T04:35:17.526Z,5.00
2018-03-19T04:37:46.957Z,5.25
2018-03-19T04:40:16.478Z,5.55
2018-03-19T04:42:45.907Z,5.43
2018-03-19T04:45:15.329Z,4.75
2018-03-19T04:47:44.982Z,4.20
2018-03-19T04:50:14.854Z,5.80
2018-03-19T04:52:44.534Z,5.32
2018-03-19T04:55:14.433Z,4.85
2018-03-19T04:57:43.910Z,6.75
2018-03-19T05:00:13.293Z,5.55
2018-03-19T05:02:42.741Z,5.22
2018-03-19T06:23:47.317Z,5.03
2018-03-19T06:26:16.756Z,5.20
2018-03-19T06:28:46.675Z,5.03
2018-03-19T06:31:16.096Z,5.93
2018-03-19T06:33:45.658Z,6.20
2018-03-19T06:36:15.031Z,6.95
2018-03-19T06:38:44.529Z,5.07
2018-03-19T06:41:13.980Z,5.57
2018-03-19T06:43:43.410Z,5.05
2018-03-19T06:46:13.198Z,5.20
2018-03-19T06:48:42.706Z,6.60
2018-03-19T06:51:12.133Z,4.75
2018-03-19T06:53:41.625Z,5.45
2018-03-19T06:56:11.472Z,5.70
2018-03-19T06:58:41.253Z,5.87
2018-03-19T07:01:10.720Z,5.45
2018-03-19T07:03:40.161Z,5.37
2018-03-19T07:06:09.757Z,4.87
2018-03-19T07:08:39.473Z,4.95
2018-03-19T07:11:08.902Z,5.57
2018-03-19T07:13:38.329Z,6.43
2018-03-19T07:16:08.383Z,5.50
2018-03-19T07:18:37.808Z,5.72
2018-03-19T07:21:08.213Z,5.75
2018-03-19T07:23:37.644Z,5.47
2018-03-19T07:26:07.405Z,5.82
2018-03-19T07:28:37.199Z,5.80
2018-03-19T07:31:06.618Z,5.28
2018-03-19T07:33:36.555Z,7.07
2018-03-19T07:36:06.470Z,6.68
2018-03-19T07:38:35.893Z,6.37
2018-03-19T07:41:05.705Z,5.32
2018-03-19T07:43:35.406Z,5.65
2018-03-19T07:46:05.322Z,6.70
2018-03-19T07:48:34.838Z,5.57
2018-03-19T07:51:04.576Z,5.80
2018-03-19T07:53:34.094Z,6.10
2018-03-19T07:56:03.605Z,5.97
2018-03-19T07:58:33.129Z,5.62
2018-03-19T08:01:02.528Z,6.05
2018-03-19T08:03:31.975Z,6.43
2018-03-19T08:06:01.777Z,4.85
2018-03-19T08:08:31.697Z,6.55
2018-03-19T08:11:01.344Z,5.40
2018-03-19T08:13:31.089Z,6.90
2018-03-19T08:16:00.836Z,6.70
2018-03-19T08:18:30.323Z,5.72
2018-03-19T08:20:59.861Z,5.47
2018-03-19T08:23:29.302Z,5.28
2018-03-19T08:25:58.734Z,7.03
2018-03-19T08:28:31.657Z,5.93
2018-03-19T08:31:01.089Z,6.40
2018-03-19T08:33:30.521Z,6.20
2018-03-19T08:35:59.966Z,5.70
2018-03-19T08:38:29.397Z,6.47
2018-03-19T08:40:59.184Z,6.40
2018-03-19T08:43:29.115Z,7.47
2018-03-19T08:45:58.628Z,6.53
2018-03-19T08:48:28.656Z,6.15
2018-03-19T08:50:58.109Z,6.15
2018-03-19T08:53:27.753Z,7.40
2018-03-19T08:55:57.540Z,5.12
2018-03-19T08:58:26.997Z,5.83
2018-03-19T09:00:56.421Z,6.10
2018-03-19T09:03:26.037Z,5.70
2018-03-19T09:05:56.233Z,6.87
2018-03-19T09:08:26.005Z,6.63
2018-03-19T09:10:55.444Z,6.87
2018-03-19T09:13:25.145Z,7.27
2018-03-19T09:15:54.732Z,6.50
2018-03-19T09:18:24.533Z,7.40
2018-03-19T09:20:54.451Z,7.00
2018-03-19T09:23:23.885Z,5.90
2018-03-19T09:25:53.329Z,6.63
2018-03-19T09:28:25.210Z,6.70
2018-03-19T09:30:54.629Z,6.20
2018-03-19T09:33:24.126Z,7.40
2018-03-19T09:35:53.537Z,7.30
2018-03-19T09:38:22.957Z,7.07
2018-03-19T09:40:52.402Z,7.87
2018-03-19T09:43:22.113Z,7.80
2018-03-19T09:45:51.753Z,6.20
2018-03-19T09:48:21.241Z,6.67
2018-03-19T09:50:56.776Z,7.60
2018-03-19T09:53:26.534Z,7.57
2018-03-19T09:55:56.116Z,7.77
2018-03-19T09:58:25.604Z,8.13
2018-03-19T10:00:55.551Z,7.50
2018-03-19T10:03:25.012Z,6.20
2018-03-19T10:05:55.107Z,6.63
2018-03-19T10:08:24.918Z,6.67
2018-03-19T11:32:53.680Z,9.07
2018-03-19T11:35:23.121Z,8.47
2018-03-19T11:37:52.991Z,7.20
2018-03-19T11:40:22.687Z,8.07
2018-03-19T11:42:52.612Z,7.50
2018-03-19T11:45:22.033Z,7.90
2018-03-19T11:47:51.611Z,8.90
2018-03-19T11:50:21.160Z,7.77
2018-03-19T11:52:50.680Z,7.10
2018-03-19T11:55:20.177Z,7.43
2018-03-19T11:57:49.604Z,7.10
2018-03-19T12:00:19.041Z,7.13
2018-03-19T12:02:48.509Z,8.10
2018-03-19T12:05:17.934Z,6.67
2018-03-19T12:07:47.845Z,7.47
2018-03-19T12:10:24.758Z,6.67
2018-03-19T12:12:54.336Z,7.87
2018-03-19T12:15:23.771Z,7.33
2018-03-19T12:17:53.875Z,8.03
2018-03-19T12:20:23.628Z,7.10
2018-03-19T12:22:53.577Z,8.02
2018-03-19T12:25:23.076Z,8.13
2018-03-19T12:27:52.734Z,7.70
2018-03-19T12:30:23.458Z,6.80
2018-03-19T12:32:52.890Z,7.20
2018-03-19T12:35:22.321Z,7.97
2018-03-19T12:37:52.394Z,7.90
2018-03-19T12:40:22.171Z,7.77
2018-03-19T12:42:51.604Z,6.93
2018-03-19T12:45:21.169Z,8.47
2018-03-19T12:47:50.653Z,7.60
2018-03-19T12:50:20.152Z,9.00
2018-03-19T12:52:49.857Z,8.80
2018-03-19T12:55:19.627Z,6.93
2018-03-19T12:57:49.036Z,7.40
2018-03-19T13:00:18.454Z,7.20
2018-03-19T13:02:47.907Z,7.27
2018-03-19T13:05:17.609Z,8.83
2018-03-19T13:07:47.045Z,7.50
2018-03-19T13:10:16.976Z,8.27
2018-03-19T13:12:46.404Z,7.37
2018-03-19T13:15:15.836Z,7.63
2018-03-19T13:17:45.324Z,6.90
2018-03-19T13:20:15.116Z,7.20
2018-03-19T13:22:44.593Z,7.20
2018-03-19T13:25:14.518Z,8.20
2018-03-19T13:27:44.394Z,7.10
2018-03-19T13:30:14.197Z,7.67
2018-03-19T13:32:43.631Z,9.63
2018-03-19T13:35:13.064Z,8.30
2018-03-19T13:37:43.305Z,8.57
2018-03-19T13:40:12.853Z,7.63
2018-03-19T13:42:42.954Z,8.70
2018-03-19T13:45:12.376Z,9.33
2018-03-19T13:47:42.124Z,8.33
2018-03-19T13:50:11.653Z,9.03
2018-03-19T13:52:44.160Z,8.23
2018-03-19T13:55:13.942Z,7.93
2018-03-19T13:57:43.876Z,8.40
2018-03-19T14:00:13.327Z,8.07
2018-03-19T14:02:43.368Z,8.33
2018-03-19T14:07:48.028Z,7.50
2018-03-19T14:10:17.941Z,8.23
2018-03-19T14:12:47.372Z,8.00
2018-03-19T14:15:16.789Z,9.20
2018-03-19T14:17:46.253Z,8.87
2018-03-19T14:20:17.701Z,8.47
2018-03-19T14:22:47.425Z,9.13
2018-03-19T14:25:17.112Z,7.90
2018-03-19T14:27:46.776Z,8.30
2018-03-19T14:30:16.328Z,8.33
2018-03-19T14:32:45.765Z,8.20
2018-03-19T14:35:15.357Z,8.90
2018-03-19T14:37:45.265Z,8.17
2018-03-19T14:40:15.592Z,10.13
2018-03-19T14:42:45.017Z,9.33
2018-03-19T14:45:14.480Z,7.83
2018-03-19T14:47:44.121Z,8.90
2018-03-19T14:50:13.570Z,9.47
2018-03-19T14:52:43.345Z,7.87
2018-03-19T14:55:12.947Z,8.30
2018-03-19T14:57:42.759Z,8.40
2018-03-19T15:00:12.880Z,8.57
2018-03-19T15:02:42.309Z,8.73
2018-03-19T15:05:11.733Z,9.50
2018-03-19T15:07:47.782Z,9.53
2018-03-19T15:10:17.977Z,8.67
2018-03-19T15:12:48.764Z,8.70
2018-03-19T15:15:18.205Z,7.60
2018-03-19T15:17:47.633Z,8.70
2018-03-19T15:20:17.721Z,7.80
2018-03-19T15:22:47.218Z,9.40
2018-03-19T15:25:17.036Z,9.00
2018-03-19T15:27:46.738Z,8.17
2018-03-19T15:30:16.474Z,8.90
2018-03-19T15:32:45.884Z,8.23
2018-03-19T15:35:15.309Z,9.30
2018-03-19T15:37:45.108Z,9.10
2018-03-19T15:40:14.864Z,8.07
2018-03-19T15:42:44.346Z,8.77
2018-03-19T15:45:13.949Z,8.30
2018-03-19T15:47:43.657Z,8.07
2018-03-19T15:50:13.157Z,7.90
2018-03-19T15:52:42.680Z,8.33
2018-03-19T15:55:12.756Z,8.80
2018-03-19T15:57:42.896Z,8.57
2018-03-19T16:00:12.689Z,8.00
2018-03-19T16:02:42.110Z,8.33
2018-03-19T16:05:11.533Z,8.00
2018-03-19T16:07:48.061Z,9.00
2018-03-19T16:10:17.980Z,8.30
2018-03-19T16:12:47.415Z,9.60
2018-03-19T16:15:16.885Z,8.50
2018-03-19T16:17:46.389Z,11.80
2018-03-19T16:20:16.209Z,8.00
2018-03-19T16:22:45.688Z,8.50
2018-03-19T16:25:15.429Z,8.53
2018-03-19T16:27:45.344Z,8.00
2018-03-19T16:30:15.037Z,6.97
2018-03-19T16:32:44.564Z,7.97
2018-03-19T16:35:14.297Z,8.77
2018-03-19T16:37:44.327Z,7.07
2018-03-19T16:40:13.887Z,6.80
2018-03-19T16:42:43.336Z,6.87
2018-03-19T16:45:12.777Z,7.23
2018-03-19T16:47:42.412Z,6.63
2018-03-19T16:50:11.850Z,6.97
2018-03-19T16:52:41.385Z,7.00
2018-03-19T16:55:11.132Z,7.10
2018-03-19T16:57:40.921Z,6.97
2018-03-19T17:00:10.344Z,7.07
2018-03-19T17:02:39.803Z,7.10
2018-03-19T17:05:09.273Z,6.43
2018-03-19T17:07:38.876Z,7.00
2018-03-19T17:10:08.635Z,6.70
2018-03-19T17:12:38.389Z,7.73
2018-03-19T17:15:07.816Z,7.30
2018-03-19T17:17:37.236Z,6.70
2018-03-19T17:20:07.023Z,6.27
2018-03-19T17:22:36.533Z,6.20
2018-03-19T17:25:06.030Z,6.63
2018-03-19T17:27:36.133Z,6.60
2018-03-19T17:30:05.816Z,6.90
2018-03-19T17:32:35.492Z,5.83
2018-03-19T17:35:04.935Z,6.80
2018-03-19T17:37:34.369Z,6.13
2018-03-19T17:40:04.002Z,6.03
2018-03-19T17:42:33.688Z,6.07
2018-03-19T17:45:03.118Z,6.40
2018-03-19T17:47:33.646Z,6.93
2018-03-19T17:50:03.161Z,6.37
2018-03-19T17:52:35.624Z,7.30
2018-03-19T17:55:05.144Z,7.90
2018-03-19T17:57:34.629Z,8.93
2018-03-19T18:00:04.062Z,9.87
2018-03-19T18:02:33.503Z,9.37
2018-03-19T18:05:03.277Z,8.27
2018-03-19T18:07:32.714Z,8.90
2018-03-19T18:10:02.216Z,8.63
2018-03-19T18:12:31.932Z,8.27
2018-03-19T18:15:01.388Z,7.80
2018-03-19T18:17:30.844Z,8.93
2018-03-19T18:20:00.494Z,8.47
2018-03-19T18:22:29.977Z,7.00
2018-03-19T18:24:59.802Z,9.50
2018-03-19T18:27:29.222Z,8.00
2018-03-19T18:29:59.380Z,8.57
2018-03-19T18:32:29.793Z,9.47
2018-03-19T18:34:59.221Z,8.83
2018-03-19T18:37:28.965Z,9.50
2018-03-19T18:39:58.705Z,8.60
2018-03-19T18:42:28.633Z,9.40
2018-03-19T18:44:58.056Z,7.87
2018-03-19T18:47:28.102Z,8.70
2018-03-19T18:49:57.548Z,7.83
2018-03-19T18:52:27.276Z,7.10
2018-03-19T18:54:57.021Z,7.80
2018-03-19T18:57:26.964Z,8.07
2018-03-19T18:59:56.392Z,7.93
2018-03-19T19:02:25.840Z,7.60
2018-03-19T19:04:55.301Z,6.73
2018-03-19T19:07:24.752Z,7.87
2018-03-19T19:09:54.677Z,8.40
2018-03-19T19:12:24.527Z,9.00
2018-03-19T19:14:53.984Z,8.60
2018-03-19T19:17:23.418Z,8.17
2018-03-19T19:19:52.936Z,9.00
2018-03-19T19:22:22.659Z,8.00
2018-03-19T19:24:52.093Z,6.80
2018-03-19T19:27:22.575Z,8.07
2018-03-19T19:29:52.099Z,7.63
2018-03-19T19:32:22.538Z,9.50
2018-03-19T19:34:52.122Z,7.73
2018-03-19T19:37:22.408Z,8.70
2018-03-19T19:39:52.039Z,7.80
2018-03-19T19:42:21.457Z,8.50
2018-03-19T19:44:51.171Z,7.80
2018-03-19T19:47:20.974Z,7.53
2018-03-19T19:49:50.704Z,7.37
2018-03-19T19:52:20.651Z,7.83
2018-03-19T19:54:50.648Z,7.23
2018-03-19T20:12:12.001Z,7.30
2018-03-19T20:14:45.213Z,9.07
2018-03-19T20:17:17.772Z,7.30
2018-03-19T20:19:48.916Z,8.70
2018-03-19T20:22:35.327Z,8.60
2018-03-19T20:31:03.354Z,8.13
2018-03-19T20:42:29.288Z,7.90
2018-03-19T20:45:00.377Z,8.03
2018-03-19T20:47:33.653Z,7.93
2018-03-19T20:50:03.977Z,7.40
2018-03-19T21:04:27.230Z,7.53
2018-03-19T21:06:57.373Z,8.37
2018-03-19T21:09:26.867Z,8.37
2018-03-19T21:11:59.232Z,7.23
2018-03-19T21:14:28.685Z,7.53
2018-03-19T21:16:58.398Z,8.10
2018-03-19T21:19:28.352Z,7.87
2018-03-19T21:21:58.289Z,8.40
2018-03-19T21:24:28.189Z,7.20
2018-03-19T21:26:58.109Z,7.40
2018-03-19T21:32:11.828Z,8.53
2018-03-19T21:34:42.285Z,8.70
2018-03-19T21:37:11.714Z,7.17
2018-03-19T21:39:41.651Z,7.40
2018-03-19T21:42:11.085Z,7.53
2018-03-19T21:44:41.164Z,7.50
2018-03-19T21:47:10.927Z,9.70
2018-03-19T21:49:42.590Z,8.07
2018-03-19T22:06:58.640Z,6.83
2018-03-19T22:09:28.408Z,7.00
2018-03-19T22:11:58.409Z,8.00
2018-03-19T22:14:28.793Z,7.37
2018-03-19T22:16:58.229Z,7.97
2018-03-19T22:19:28.110Z,7.20
2018-03-19T22:21:58.017Z,7.80
2018-03-19T22:24:27.473Z,6.33
2018-03-19T22:26:56.924Z,7.23
2018-03-19T22:29:26.953Z,7.53
2018-03-19T22:31:56.387Z,6.80
2018-03-19T22:34:25.822Z,7.53
2018-03-19T22:36:55.440Z,7.20
2018-03-19T22:39:25.413Z,6.80
2018-03-19T22:41:55.313Z,8.10
2018-03-19T22:44:24.753Z,7.10
2018-03-19T22:46:54.933Z,8.33
2018-03-19T22:49:24.459Z,7.50
2018-03-19T22:51:53.894Z,8.03
2018-03-19T22:54:23.397Z,8.10
2018-03-19T22:56:52.822Z,7.30
2018-03-19T22:59:22.253Z,7.93
2018-03-19T23:01:52.014Z,6.67
2018-03-19T23:04:27.390Z,7.07
2018-03-19T23:06:57.072Z,7.93
2018-03-19T23:09:26.684Z,7.70
2018-03-19T23:11:56.738Z,7.00
2018-03-19T23:14:26.172Z,8.07
2018-03-19T23:16:55.614Z,10.07
2018-03-19T23:19:25.649Z,7.50
2018-03-19T23:21:55.184Z,7.00
2018-03-19T23:24:24.629Z,7.70
2018-03-19T23:26:54.352Z,7.03
2018-03-19T23:29:24.427Z,7.50
2018-03-19T23:31:53.880Z,8.50
2018-03-19T23:34:23.308Z,8.30
2018-03-19T23:36:52.752Z,8.23
2018-03-19T23:39:22.800Z,8.63
2018-03-19T23:41:52.224Z,7.10
2018-03-19T23:44:21.661Z,8.93
2018-03-19T23:46:51.685Z,7.67
2018-03-19T23:49:21.592Z,7.30
2018-03-19T23:51:51.033Z,7.93
2018-03-19T23:54:26.536Z,6.60
2018-03-19T23:56:55.957Z,7.70
2018-03-19T23:59:25.377Z,8.40
